Time;durP1;ratioP1;P1;durP2;ratioP2;P2;SDS_P1;SDS_P2;PMS_P1;PMS_P2;Temp;Humidity;BMP_temperature;BMP_pressure;BME280_temperature;BME280_humidity;BME280_pressure;Samples;Min_cycle;Max_cycle;Signal;HPM_P1;HPM_P2
2021/12/18 00:01:05;;;;;;;9.68;1.58;;;;;;;3.05;100.00;97889.28;4940226;29;20093;-87
2021/12/18 00:03:31;;;;;;;5.00;1.25;;;;;;;2.88;100.00;97855.41;4940264;29;20038;-86
2021/12/18 00:05:57;;;;;;;1.60;1.40;;;;;;;2.97;100.00;97860.44;4939910;29;20488;-88
2021/12/18 00:08:23;;;;;;;1.80;1.33;;;;;;;3.03;100.00;97876.13;4940050;29;20489;-87
2021/12/18 00:10:48;;;;;;;0.75;0.75;;;;;;;2.93;100.00;97847.31;4955503;29;20114;-87
2021/12/18 00:13:14;;;;;;;5.25;1.48;;;;;;;2.97;100.00;97851.63;4940350;29;20435;-87
2021/12/18 00:15:40;;;;;;;1.42;1.33;;;;;;;3.17;100.00;97873.94;4942243;29;20510;-86
2021/12/18 00:18:06;;;;;;;0.60;0.60;;;;;;;3.17;100.00;97883.66;4941332;29;20082;-86
2021/12/18 00:20:32;;;;;;;0.40;0.40;;;;;;;3.01;100.00;97855.94;4940409;29;20067;-88
2021/12/18 00:22:58;;;;;;;0.90;0.90;;;;;;;3.12;100.00;97867.94;4940959;29;20061;-86
2021/12/18 00:25:24;;;;;;;1.77;1.67;;;;;;;3.04;100.00;97866.41;4932677;29;20476;-87
2021/12/18 00:27:50;;;;;;;0.95;0.90;;;;;;;2.95;100.00;97856.09;4919538;29;20364;-87
2021/12/18 00:30:16;;;;;;;0.98;0.70;;;;;;;3.07;100.00;97882.19;4920179;29;20054;-88
2021/12/18 00:32:42;;;;;;;1.95;1.77;;;;;;;3.18;100.00;97885.41;4922512;29;20027;-87
2021/12/18 00:35:07;;;;;;;3.70;2.35;;;;;;;3.08;100.00;97873.34;4938891;29;20034;-87
2021/12/18 00:37:33;;;;;;;1.75;1.63;;;;;;;3.07;100.00;97872.50;4938664;29;20085;-87
2021/12/18 00:40:00;;;;;;;2.63;2.35;;;;;;;2.96;100.00;97863.97;4939064;29;20047;-87
2021/12/18 00:45:12;;;;;;;4.97;2.72;;;;;;;3.06;100.00;97886.59;4936220;29;20030;-86
2021/12/18 00:47:38;;;;;;;1.15;1.15;;;;;;;2.78;100.00;97835.41;4935537;29;20487;-87
2021/12/18 00:50:06;;;;;;;2.53;1.45;;;;;;;2.93;100.00;97857.91;4935445;29;20054;-86
2021/12/18 00:52:32;;;;;;;3.70;1.88;;;;;;;2.97;100.00;97872.78;4919220;29;20027;-87
2021/12/18 00:54:58;;;;;;;4.82;2.97;;;;;;;3.07;100.00;97892.75;4919422;29;20131;-86
2021/12/18 00:57:24;;;;;;;2.33;1.95;;;;;;;2.77;100.00;97832.81;4919415;29;20020;-88
2021/12/18 00:59:52;;;;;;;1.40;1.35;;;;;;;3.00;100.00;97868.28;4928808;29;20039;-89
2021/12/18 01:02:18;;;;;;;3.45;2.72;;;;;;;2.90;100.00;97850.06;4928096;29;20035;-89
2021/12/18 01:04:43;;;;;;;2.22;1.77;;;;;;;3.16;100.00;97879.28;4922533;29;20414;-89
2021/12/18 01:07:09;;;;;;;1.02;0.98;;;;;;;3.21;100.00;97891.47;4928723;29;20067;-89
2021/12/18 01:12:29;;;;;;;6.43;2.33;;;;;;;3.28;100.00;97887.75;4924327;29;20599;-88
2021/12/18 01:15:11;;;;;;;8.98;2.70;;;;;;;3.14;100.00;97860.81;4924463;29;20093;-88
2021/12/18 01:23:06;;;;;;;4.03;1.95;;;;;;;3.03;100.00;97841.78;4953207;29;20071;-88
2021/12/18 01:25:32;;;;;;;0.88;0.88;;;;;;;3.04;100.00;97850.56;4936367;29;20036;-88
2021/12/18 01:27:57;;;;;;;3.17;2.22;;;;;;;3.14;100.00;97881.09;4935773;29;20094;-89
2021/12/18 01:30:23;;;;;;;3.08;2.72;;;;;;;3.00;100.00;97864.75;4930430;29;20031;-89
2021/12/18 01:32:49;;;;;;;2.08;1.45;;;;;;;2.97;100.00;97864.84;4933251;29;20035;-88
2021/12/18 01:35:15;;;;;;;3.50;1.40;;;;;;;2.85;100.00;97844.91;4937127;29;20039;-88
2021/12/18 01:37:42;;;;;;;0.60;0.60;;;;;;;2.95;100.00;97866.66;4927068;29;20115;-88
2021/12/18 01:40:08;;;;;;;2.35;1.67;;;;;;;2.96;100.00;97876.31;4928441;29;20035;-88
2021/12/18 01:43:29;;;;;;;2.30;1.60;;;;;;;2.88;100.00;97867.72;4941487;29;20070;-89
2021/12/18 01:45:42;;;;;;;2.08;1.88;;;;;;;2.93;100.00;97864.06;4952577;29;20042;-88
2021/12/18 01:51:17;;;;;;;2.60;1.25;;;;;;;2.94;100.00;97879.00;4951240;29;20054;-88
2021/12/18 01:53:44;;;;;;;1.38;1.27;;;;;;;2.86;100.00;97862.47;4952186;29;20027;-88
2021/12/18 01:56:09;;;;;;;1.08;1.08;;;;;;;2.98;100.00;97877.16;4944046;29;20062;-89
2021/12/18 01:58:36;;;;;;;0.70;0.70;;;;;;;2.81;100.00;97868.78;4929902;29;20052;-89
2021/12/18 02:01:03;;;;;;;1.88;1.52;;;;;;;2.69;100.00;97849.72;4928941;29;20396;-88
2021/12/18 02:03:29;;;;;;;1.35;1.25;;;;;;;2.76;100.00;97870.69;4940691;29;20035;-89
2021/12/18 02:05:55;;;;;;;5.72;1.45;;;;;;;2.65;100.00;97848.06;4931608;29;20032;-89
2021/12/18 02:08:23;;;;;;;4.95;1.58;;;;;;;2.65;100.00;97842.78;4944733;29;20042;-89
2021/12/18 02:10:56;;;;;;;3.65;1.42;;;;;;;2.56;100.00;97834.22;4936059;29;20040;-89
2021/12/18 02:13:38;;;;;;;1.50;1.40;;;;;;;2.78;100.00;97869.75;4945506;29;20027;-89
2021/12/18 02:21:38;;;;;;;1.05;0.88;;;;;;;2.66;100.00;97844.53;4954455;29;20046;-88
2021/12/18 02:24:04;;;;;;;0.93;0.93;;;;;;;2.88;100.00;97875.66;4937737;29;20035;-89
2021/12/18 02:26:30;;;;;;;1.20;0.70;;;;;;;2.77;100.00;97856.59;4930047;29;20031;-88
2021/12/18 02:28:59;;;;;;;2.58;1.00;;;;;;;2.78;100.00;97850.38;4933287;29;20050;-89
2021/12/18 02:31:25;;;;;;;0.40;0.40;;;;;;;2.80;100.00;97845.94;4925427;29;20062;-88
2021/12/18 02:33:50;;;;;;;2.70;1.88;;;;;;;2.78;100.00;97837.19;4932641;29;20023;-89
2021/12/18 02:36:23;;;;;;;2.05;1.33;;;;;;;2.91;100.00;97870.28;4934415;29;20118;-89
2021/12/18 02:44:00;;;;;;;1.33;0.45;;;;;;;2.94;100.00;97881.66;4949838;29;20062;-88
2021/12/18 02:46:26;;;;;;;0.63;0.63;;;;;;;2.93;100.00;97873.75;4946611;29;20026;-89
2021/12/18 02:48:53;;;;;;;1.13;1.02;;;;;;;2.95;100.00;97867.53;4932606;29;20019;-88
2021/12/18 02:51:20;;;;;;;1.25;1.17;;;;;;;2.93;100.00;97884.31;4936620;29;20106;-88
2021/12/18 02:53:49;;;;;;;1.60;1.50;;;;;;;2.93;100.00;97879.91;4939651;29;20381;-88
2021/12/18 02:56:16;;;;;;;2.17;1.63;;;;;;;2.89;100.00;97872.13;4940329;29;20042;-88
2021/12/18 02:58:46;;;;;;;0.75;0.73;;;;;;;2.89;100.00;97890.59;4935279;29;20066;-88
2021/12/18 03:01:20;;;;;;;1.55;0.68;;;;;;;2.85;100.00;97881.88;4934384;29;20408;-89
2021/12/18 03:03:46;;;;;;;1.85;1.20;;;;;;;2.93;100.00;97889.59;4934612;29;20182;-89
2021/12/18 03:06:32;;;;;;;0.47;0.47;;;;;;;2.90;100.00;97889.69;4935490;29;20027;-88
2021/12/18 03:25:17;;;;;;;0.50;0.50;;;;;;;2.90;100.00;97908.16;4951053;29;20027;-87
2021/12/18 03:27:42;;;;;;;1.30;1.20;;;;;;;2.47;99.86;97852.94;4929408;29;20046;-88
2021/12/18 03:30:08;;;;;;;0.70;0.70;;;;;;;2.72;97.44;97899.81;4946796;29;20035;-88
2021/12/18 03:32:34;;;;;;;0.65;0.65;;;;;;;2.77;98.35;97898.84;4941527;29;20121;-87
2021/12/18 03:35:00;;;;;;;0.82;0.82;;;;;;;2.77;100.00;97894.41;4933938;29;20129;-86
2021/12/18 03:37:25;;;;;;;0.57;0.57;;;;;;;2.76;100.00;97882.13;4941576;29;20039;-88
2021/12/18 03:39:51;;;;;;;4.18;1.42;;;;;;;2.87;98.95;97910.88;4932435;29;20035;-88
2021/12/18 03:42:17;;;;;;;2.00;1.38;;;;;;;2.92;96.93;97893.16;4922104;29;20032;-88
2021/12/18 03:44:42;;;;;;;2.33;1.02;;;;;;;2.84;96.15;97888.06;4929946;29;20118;-88
2021/12/18 03:47:08;;;;;;;0.20;0.20;;;;;;;2.85;97.94;97910.06;4926128;29;20039;-88
2021/12/18 03:49:34;;;;;;;0.40;0.40;;;;;;;2.73;100.00;97877.81;4933489;29;20090;-88
2021/12/18 03:52:00;;;;;;;6.28;1.75;;;;;;;2.86;100.00;97893.31;4926555;29;20050;-89
2021/12/18 03:55:11;;;;;;;1.48;0.82;;;;;;;3.06;100.00;97923.59;4926505;29;20074;-88
2021/12/18 03:57:36;;;;;;;1.50;1.17;;;;;;;2.76;100.00;97865.41;4948518;29;20558;-88
2021/12/18 04:00:05;;;;;;;0.50;0.50;;;;;;;3.09;100.00;97934.09;4941305;29;20058;-88
2021/12/18 04:02:31;;;;;;;2.25;1.25;;;;;;;3.02;100.00;97905.19;4927378;29;20064;-87
2021/12/18 04:04:56;;;;;;;1.58;1.48;;;;;;;3.19;100.00;97934.72;4946331;29;20020;-88
2021/12/18 04:07:22;;;;;;;0.85;0.85;;;;;;;2.94;99.98;97883.41;4930234;29;20098;-88
2021/12/18 04:09:48;;;;;;;1.52;1.42;;;;;;;3.24;98.74;97940.72;4933115;29;20035;-88
2021/12/18 04:12:15;;;;;;;22.77;2.33;;;;;;;3.03;99.06;97904.31;4929178;29;20035;-88
2021/12/18 04:14:41;;;;;;;0.80;0.80;;;;;;;3.07;98.75;97914.78;4929257;29;20031;-88
2021/12/18 04:17:07;;;;;;;2.88;2.00;;;;;;;3.02;100.00;97906.06;4935739;29;20031;-89
2021/12/18 04:19:32;;;;;;;1.63;1.52;;;;;;;3.17;98.35;97926.81;4930798;29;20050;-89
2021/12/18 04:21:58;;;;;;;0.93;0.93;;;;;;;3.19;96.83;97938.22;4922066;29;20039;-89
2021/12/18 04:24:24;;;;;;;1.63;1.52;;;;;;;3.19;96.86;97945.28;4931316;29;20035;-89
2021/12/18 04:26:49;;;;;;;2.58;2.03;;;;;;;3.16;95.66;97940.94;4932257;29;20094;-89
2021/12/18 04:29:15;;;;;;;3.45;1.10;;;;;;;3.21;96.74;97944.31;4933522;29;20023;-89
2021/12/18 04:31:41;;;;;;;0.77;0.77;;;;;;;3.22;97.24;97951.34;4940159;29;20055;-88
2021/12/18 04:34:07;;;;;;;1.67;1.58;;;;;;;3.20;95.27;97952.28;4926448;29;20032;-86
2021/12/18 04:36:33;;;;;;;0.65;0.65;;;;;;;3.11;97.37;97953.41;4934134;29;20038;-83
2021/12/18 04:38:59;;;;;;;1.30;1.20;;;;;;;3.00;100.00;97955.47;4933951;29;20034;-83
2021/12/18 04:41:36;;;;;;;2.28;1.60;;;;;;;3.03;100.00;97967.72;4926674;29;20035;-84
2021/12/18 04:44:02;;;;;;;1.42;1.33;;;;;;;3.03;100.00;97968.59;4931584;29;20040;-87
2021/12/18 04:46:28;;;;;;;6.75;3.88;;;;;;;3.03;100.00;97967.72;4928816;29;20393;-85
2021/12/18 04:48:53;;;;;;;10.98;7.82;;;;;;;3.10;99.92;97975.47;4944073;29;20078;-86
2021/12/18 04:51:19;;;;;;;3.15;2.80;;;;;;;3.09;99.71;97980.78;4933183;29;20031;-86
2021/12/18 04:53:45;;;;;;;9.63;5.05;;;;;;;3.08;100.00;97974.63;4939549;29;20027;-86
2021/12/18 04:56:10;;;;;;;1.48;1.38;;;;;;;3.12;99.36;97985.97;4921877;29;20024;-85
2021/12/18 04:58:36;;;;;;;4.10;1.75;;;;;;;3.08;97.81;97971.09;4931849;29;20078;-86
2021/12/18 05:01:02;;;;;;;2.42;2.22;;;;;;;3.11;97.94;97981.59;4923255;29;20495;-86
2021/12/18 05:03:27;;;;;;;4.80;3.45;;;;;;;3.11;97.83;97989.53;4928015;29;20038;-85
2021/12/18 05:05:53;;;;;;;2.85;1.90;;;;;;;3.16;99.40;97999.09;4932436;29;20030;-85
2021/12/18 05:08:22;;;;;;;3.13;2.83;;;;;;;3.22;98.51;98008.63;4919507;29;20036;-86
2021/12/18 05:10:47;;;;;;;1.40;1.35;;;;;;;3.18;100.00;98006.97;4935550;29;20035;-86
2021/12/18 05:13:13;;;;;;;1.65;1.55;;;;;;;3.12;97.17;97991.25;4945202;29;20030;-86
2021/12/18 05:15:38;;;;;;;1.60;1.40;;;;;;;3.16;98.97;98009.66;4928250;29;20590;-85
2021/12/18 05:18:04;;;;;;;4.90;2.00;;;;;;;3.15;100.00;98022.91;4924320;29;20107;-85
2021/12/18 05:20:30;;;;;;;2.22;2.03;;;;;;;3.07;100.00;98038.09;4916097;29;20038;-86
2021/12/18 05:22:56;;;;;;;1.27;1.17;;;;;;;3.01;100.00;98038.25;4914605;29;20038;-86
2021/12/18 05:25:21;;;;;;;0.65;0.65;;;;;;;2.63;100.00;98047.03;4918215;29;20023;-86
2021/12/18 05:27:47;;;;;;;0.85;0.85;;;;;;;2.21;100.00;98040.94;4934223;29;20027;-85
2021/12/18 05:30:13;;;;;;;1.48;1.20;;;;;;;2.21;100.00;98040.06;4916649;29;20166;-85
2021/12/18 05:33:02;;;;;;;1.42;1.25;;;;;;;2.26;100.00;98054.03;4933480;29;20042;-85
2021/12/18 05:35:27;;;;;;;0.40;0.40;;;;;;;2.07;100.00;98049.13;4911863;29;20523;-86
2021/12/18 05:37:54;;;;;;;1.67;1.02;;;;;;;2.07;100.00;98054.41;4925908;29;20024;-85
2021/12/18 05:40:25;;;;;;;2.33;1.77;;;;;;;2.12;100.00;98055.19;4924096;29;20027;-85
2021/12/18 05:42:52;;;;;;;1.58;1.48;;;;;;;2.26;100.00;98057.53;4915193;29;20023;-84
2021/12/18 05:45:46;;;;;;;0.73;0.68;;;;;;;2.16;100.00;98058.63;4928691;29;20062;-84
2021/12/18 05:48:09;;;;;;;2.13;1.70;;;;;;;2.22;100.00;98057.63;4947134;29;20141;-86
2021/12/18 05:51:06;;;;;;;0.70;0.70;;;;;;;2.22;100.00;98057.63;4924087;29;20075;-85
2021/12/18 05:53:33;;;;;;;0.75;0.75;;;;;;;2.13;100.00;98032.31;4921272;29;20063;-85
2021/12/18 05:56:11;;;;;;;1.15;1.00;;;;;;;1.92;100.00;98003.72;4927673;29;20036;-85
2021/12/18 05:58:36;;;;;;;0.95;0.95;;;;;;;2.27;100.00;98048.72;4921209;29;20143;-86
2021/12/18 06:01:02;;;;;;;0.70;0.70;;;;;;;2.49;100.00;98080.81;4934097;29;20058;-86
2021/12/18 06:03:28;;;;;;;7.45;2.20;;;;;;;2.40;100.00;98073.09;4929026;29;20035;-84
2021/12/18 06:05:53;;;;;;;3.63;1.45;;;;;;;2.44;100.00;98080.91;4937433;29;20063;-85
2021/12/18 06:08:19;;;;;;;16.27;2.17;;;;;;;2.46;100.00;98083.53;4945213;29;20249;-85
2021/12/18 06:10:44;;;;;;;5.40;3.08;;;;;;;2.48;100.00;98090.50;4929961;29;20027;-85
2021/12/18 06:13:14;;;;;;;3.80;1.75;;;;;;;2.36;100.00;98087.25;4930716;29;20031;-85
2021/12/18 06:15:39;;;;;;;1.88;1.77;;;;;;;2.21;100.00;98088.44;4918436;29;20559;-86
2021/12/18 06:18:05;;;;;;;4.70;3.08;;;;;;;2.02;100.00;98074.75;4926151;29;20130;-85
2021/12/18 06:20:31;;;;;;;3.45;2.67;;;;;;;2.04;100.00;98090.53;4945228;29;20454;-85
2021/12/18 06:22:57;;;;;;;3.67;1.90;;;;;;;2.10;100.00;98082.50;4945296;29;20028;-86
2021/12/18 06:25:22;;;;;;;0.60;0.60;;;;;;;1.94;100.00;98081.09;4936923;29;20469;-85
2021/12/18 06:27:48;;;;;;;8.57;2.88;;;;;;;2.08;100.00;98100.13;4926753;29;20036;-86
2021/12/18 06:30:16;;;;;;;6.75;4.13;;;;;;;2.17;100.00;98099.94;4931461;29;20158;-85
2021/12/18 06:32:41;;;;;;;5.85;1.35;;;;;;;2.11;100.00;98094.78;4932853;29;20028;-84
2021/12/18 06:35:08;;;;;;;1.73;1.63;;;;;;;2.14;100.00;98094.75;4936128;29;20034;-84
2021/12/18 06:37:36;;;;;;;3.17;2.22;;;;;;;2.17;100.00;98098.19;4942390;29;20407;-86
2021/12/18 06:40:04;;;;;;;1.33;1.10;;;;;;;2.23;100.00;98107.75;4939658;29;20020;-86
2021/12/18 06:42:32;;;;;;;1.80;1.15;;;;;;;2.31;100.00;98119.00;4918555;29;20043;-84
2021/12/18 06:44:58;;;;;;;2.28;2.17;;;;;;;2.16;100.00;98100.84;4931119;29;20531;-86
2021/12/18 06:47:24;;;;;;;2.90;2.38;;;;;;;2.31;100.00;98116.38;4943213;29;20023;-86
2021/12/18 06:49:49;;;;;;;1.67;1.58;;;;;;;2.33;100.00;98105.78;4950139;29;20035;-86
2021/12/18 06:52:15;;;;;;;1.48;1.27;;;;;;;2.34;100.00;98103.09;4933694;29;20110;-86
2021/12/18 06:54:40;;;;;;;1.30;1.23;;;;;;;2.45;100.00;98114.31;4930358;29;20415;-86
2021/12/18 06:57:06;;;;;;;4.20;3.50;;;;;;;2.44;100.00;98107.31;4934005;29;20034;-86
2021/12/18 06:59:32;;;;;;;1.50;1.40;;;;;;;2.53;100.00;98103.59;4945874;29;20048;-87
2021/12/18 07:01:57;;;;;;;2.70;2.22;;;;;;;2.64;100.00;98117.44;4923361;29;20032;-87
2021/12/18 07:04:24;;;;;;;4.32;3.90;;;;;;;2.74;100.00;98122.47;4926071;29;20047;-87
2021/12/18 07:06:51;;;;;;;11.65;5.13;;;;;;;2.79;100.00;98129.44;4929148;29;20122;-86
2021/12/18 07:09:17;;;;;;;3.08;2.17;;;;;;;2.82;100.00;98126.75;4920475;29;20043;-87
2021/12/18 07:11:44;;;;;;;3.17;1.48;;;;;;;2.86;100.00;98131.06;4928510;29;20654;-87
2021/12/18 07:14:10;;;;;;;13.48;3.63;;;;;;;2.86;100.00;98133.69;4918388;29;20035;-87
2021/12/18 07:16:35;;;;;;;1.65;1.55;;;;;;;2.90;100.00;98132.72;4925224;29;20034;-86
2021/12/18 07:19:01;;;;;;;5.57;3.25;;;;;;;2.97;100.00;98135.19;4930690;29;20109;-87
2021/12/18 07:21:26;;;;;;;3.60;2.20;;;;;;;3.00;100.00;98128.97;4933643;29;20087;-86
2021/12/18 07:23:52;;;;;;;2.88;2.42;;;;;;;3.12;100.00;98147.19;4939853;29;20059;-86
2021/12/18 07:26:20;;;;;;;3.90;2.38;;;;;;;3.09;100.00;98140.19;4927145;29;20039;-87
2021/12/18 07:28:46;;;;;;;2.00;1.88;;;;;;;3.29;100.00;98158.25;4925063;29;20031;-87
2021/12/18 07:31:11;;;;;;;0.75;0.75;;;;;;;3.37;100.00;98153.63;4924877;29;20081;-87
2021/12/18 07:33:41;;;;;;;4.32;2.42;;;;;;;3.47;100.00;98163.09;4929568;29;20110;-87
2021/12/18 07:36:08;;;;;;;3.03;2.78;;;;;;;3.65;100.00;98157.38;4931481;29;20467;-86
2021/12/18 07:38:34;;;;;;;8.07;5.03;;;;;;;3.81;100.00;98149.91;4929106;29;20788;-86
2021/12/18 07:40:59;;;;;;;2.90;2.65;;;;;;;4.09;99.95;98165.94;4945783;29;20555;-86
2021/12/18 07:43:25;;;;;;;15.25;6.35;;;;;;;4.22;98.73;98170.84;4932863;29;20134;-88
2021/12/18 07:45:51;;;;;;;8.50;4.53;;;;;;;4.28;95.14;98161.88;4946134;29;20060;-86
2021/12/18 07:48:17;;;;;;;5.20;4.07;;;;;;;4.20;93.98;98171.81;4935630;29;20094;-86
2021/12/18 07:50:43;;;;;;;4.93;2.60;;;;;;;4.19;94.53;98172.72;4923316;29;20043;-85
2021/12/18 07:53:09;;;;;;;0.60;0.60;;;;;;;4.24;93.39;98178.78;4916852;29;20074;-86
2021/12/18 07:55:35;;;;;;;1.63;1.35;;;;;;;4.16;93.12;98155.13;4935552;29;20041;-87
2021/12/18 07:58:00;;;;;;;2.92;1.67;;;;;;;4.57;92.99;98188.44;4926860;29;20098;-87
2021/12/18 08:00:26;;;;;;;2.83;1.95;;;;;;;4.62;90.46;98177.69;4924477;29;20039;-85
2021/12/18 08:02:51;;;;;;;3.30;2.42;;;;;;;4.42;89.25;98174.75;4927014;29;20035;-85
2021/12/18 08:05:17;;;;;;;3.55;1.42;;;;;;;4.30;90.10;98186.53;4916374;29;20059;-86
2021/12/18 08:07:43;;;;;;;0.80;0.80;;;;;;;4.47;90.25;98191.38;4927557;29;20038;-88
2021/12/18 08:10:09;;;;;;;0.20;0.20;;;;;;;4.59;88.78;98181.31;4943766;29;20107;-86
2021/12/18 08:12:34;;;;;;;0.57;0.57;;;;;;;4.64;89.74;98184.72;4931828;29;20034;-86
2021/12/18 08:15:00;;;;;;;1.45;1.30;;;;;;;4.70;88.98;98188.97;4915717;29;20042;-86
2021/12/18 08:17:26;;;;;;;1.13;1.13;;;;;;;4.81;89.54;98186.84;4922268;29;20510;-86
2021/12/18 08:19:51;;;;;;;1.55;1.45;;;;;;;4.92;89.96;98200.69;4922819;29;20614;-87
2021/12/18 08:22:19;;;;;;;3.65;1.50;;;;;;;4.99;85.19;98185.44;4921392;29;20043;-86
2021/12/18 08:24:45;;;;;;;1.33;1.23;;;;;;;4.97;85.54;98180.22;4929299;28;20031;-85
2021/12/18 08:27:10;;;;;;;1.52;1.42;;;;;;;4.78;86.85;98182.53;4946160;29;20035;-86
2021/12/18 08:29:36;;;;;;;2.17;1.20;;;;;;;4.63;87.36;98188.25;4926582;29;20036;-85
2021/12/18 08:32:02;;;;;;;1.48;1.38;;;;;;;4.72;87.62;98195.94;4931816;29;20148;-85
2021/12/18 08:34:28;;;;;;;0.80;0.80;;;;;;;4.66;86.71;98189.94;4925741;29;20045;-85
2021/12/18 08:36:54;;;;;;;1.40;1.27;;;;;;;4.63;86.38;98187.38;4924667;29;20027;-86
2021/12/18 08:39:19;;;;;;;2.30;1.67;;;;;;;4.72;87.15;98203.91;4929011;29;20054;-87
2021/12/18 08:41:58;;;;;;;6.43;3.55;;;;;;;4.85;84.01;98194.69;4922803;29;20050;-85
2021/12/18 08:44:24;;;;;;;2.95;2.28;;;;;;;4.69;82.92;98182.78;4922672;29;20090;-86
2021/12/18 08:46:49;;;;;;;1.70;1.60;;;;;;;4.56;84.90;98207.00;4927312;29;20031;-86
2021/12/18 08:49:15;;;;;;;1.83;1.35;;;;;;;4.50;84.45;98196.59;4936783;29;20027;-86
2021/12/18 08:51:41;;;;;;;1.30;1.20;;;;;;;4.47;85.95;98208.13;4928943;29;20175;-86
2021/12/18 08:54:09;;;;;;;3.53;1.42;;;;;;;4.46;86.55;98211.69;4933415;29;20123;-84
2021/12/18 08:56:35;;;;;;;0.95;0.70;;;;;;;4.30;88.09;98198.00;4932104;29;20023;-84
2021/12/18 08:59:01;;;;;;;2.25;1.90;;;;;;;4.30;87.81;98197.13;4929563;29;20047;-82
2021/12/18 09:01:29;;;;;;;1.70;1.60;;;;;;;4.35;89.76;98203.16;4938095;29;20030;-82
2021/12/18 09:03:55;;;;;;;3.47;2.28;;;;;;;4.48;87.64;98211.66;4930552;29;20024;-81
2021/12/18 09:06:21;;;;;;;2.55;1.73;;;;;;;4.56;88.61;98199.94;4929510;29;20027;-82
2021/12/18 09:08:47;;;;;;;2.28;2.03;;;;;;;4.53;88.15;98207.97;4935284;29;20119;-82
2021/12/18 09:11:13;;;;;;;2.42;2.22;;;;;;;4.45;89.61;98209.97;4950350;29;20027;-82
2021/12/18 09:13:42;;;;;;;1.40;1.30;;;;;;;4.50;92.95;98213.34;4950524;29;20023;-81
2021/12/18 09:16:08;;;;;;;0.80;0.80;;;;;;;4.37;88.45;98202.22;4962367;29;20526;-83
2021/12/18 09:18:34;;;;;;;3.08;2.00;;;;;;;4.33;89.54;98205.88;4952836;29;20024;-81
2021/12/18 09:21:00;;;;;;;3.65;2.60;;;;;;;4.40;89.90;98193.31;4942261;29;20527;-82
2021/12/18 09:23:25;;;;;;;26.50;4.22;;;;;;;4.35;90.90;98184.63;4940485;29;20035;-81
2021/12/18 09:25:51;;;;;;;1.58;1.48;;;;;;;4.40;88.74;98198.59;4945668;29;20066;-82
2021/12/18 09:28:17;;;;;;;8.55;3.13;;;;;;;4.41;89.73;98208.31;4926095;29;20512;-81
2021/12/18 09:30:42;;;;;;;12.50;6.13;;;;;;;4.41;90.70;98213.59;4939779;29;20074;-82
2021/12/18 09:33:11;;;;;;;25.50;3.70;;;;;;;4.32;90.42;98201.47;4947053;29;20043;-82
2021/12/18 09:35:37;;;;;;;3.30;1.33;;;;;;;4.42;89.94;98194.16;4950334;29;20035;-80
2021/12/18 09:38:04;;;;;;;3.65;1.98;;;;;;;4.54;88.62;98204.41;4950729;29;20460;-82
2021/12/18 09:40:30;;;;;;;3.05;2.33;;;;;;;4.64;90.28;98197.97;4939182;29;20036;-82
2021/12/18 09:42:56;;;;;;;1.48;1.38;;;;;;;4.76;89.36;98208.22;4942685;29;20066;-82
2021/12/18 09:45:22;;;;;;;2.25;2.05;;;;;;;4.48;89.99;98206.34;4933928;29;20031;-82
2021/12/18 09:47:48;;;;;;;1.40;1.30;;;;;;;4.39;90.23;98191.59;4960313;29;20106;-82
2021/12/18 09:50:16;;;;;;;1.67;1.58;;;;;;;4.32;89.70;98193.53;4956433;29;20126;-81
2021/12/18 09:52:42;;;;;;;1.27;1.02;;;;;;;4.24;90.79;98199.94;4950064;29;20371;-82
2021/12/18 09:55:08;;;;;;;4.10;1.17;;;;;;;4.16;91.81;98191.31;4945517;29;20035;-82
2021/12/18 09:57:34;;;;;;;1.88;1.77;;;;;;;4.31;92.23;98196.22;4944154;29;20047;-82
2021/12/18 10:00:00;;;;;;;4.50;3.15;;;;;;;4.30;89.87;98190.06;4940519;29;20499;-82
2021/12/18 10:02:25;;;;;;;7.50;2.70;;;;;;;4.29;90.39;98187.44;4936409;29;20059;-83
2021/12/18 10:04:54;;;;;;;1.42;1.00;;;;;;;4.33;90.16;98194.41;4940378;29;20032;-82
2021/12/18 10:07:27;;;;;;;2.58;1.45;;;;;;;4.35;90.60;98190.81;4937234;29;20099;-82
2021/12/18 10:09:58;;;;;;;6.55;4.03;;;;;;;4.41;91.25;98187.13;4937674;29;20058;-82
2021/12/18 10:12:29;;;;;;;1.77;1.67;;;;;;;4.30;89.03;98186.53;4939397;29;20488;-83
2021/12/18 10:14:57;;;;;;;2.30;1.88;;;;;;;4.31;89.18;98196.22;4944290;29;20039;-84
2021/12/18 10:17:37;;;;;;;2.10;1.85;;;;;;;4.42;86.79;98195.94;4950855;29;20479;-81
2021/12/18 10:20:24;;;;;;;4.13;3.17;;;;;;;4.55;87.59;98182.31;4936997;29;20558;-82
2021/12/18 10:22:54;;;;;;;3.83;3.35;;;;;;;4.60;87.25;98191.00;4938369;29;20035;-82
2021/12/18 10:25:22;;;;;;;2.15;1.85;;;;;;;4.61;88.09;98178.63;4926829;29;20646;-82
2021/12/18 10:28:15;;;;;;;3.47;2.70;;;;;;;4.71;87.34;98191.56;4928745;29;20032;-81
2021/12/18 10:30:51;;;;;;;2.80;1.92;;;;;;;4.76;86.50;98194.09;4948770;29;20110;-81
2021/12/18 10:33:17;;;;;;;8.13;2.63;;;;;;;4.79;84.63;98200.16;4930919;29;20037;-82
2021/12/18 10:35:51;;;;;;;1.92;1.77;;;;;;;4.77;83.76;98186.06;4928751;29;20032;-82
2021/12/18 10:38:52;;;;;;;3.42;2.25;;;;;;;4.96;83.34;98172.28;4921709;29;20046;-82
2021/12/18 10:41:30;;;;;;;1.20;1.20;;;;;;;5.09;83.77;98173.66;4931517;29;20169;-81
2021/12/18 10:44:06;;;;;;;1.98;1.77;;;;;;;5.32;83.28;98187.09;4925906;29;20118;-82
2021/12/18 10:46:33;;;;;;;3.55;3.25;;;;;;;5.45;84.27;98193.75;4946979;29;20471;-81
2021/12/18 10:49:08;;;;;;;2.83;1.60;;;;;;;5.56;82.42;98170.41;4926938;29;20118;-82
2021/12/18 10:51:41;;;;;;;1.73;1.63;;;;;;;5.58;81.50;98171.22;4932040;29;20111;-82
2021/12/18 10:54:09;;;;;;;5.15;2.65;;;;;;;5.49;80.45;98179.47;4945097;29;20121;-82
2021/12/18 10:56:40;;;;;;;1.33;1.25;;;;;;;5.48;80.72;98167.13;4952138;29;20095;-82
2021/12/18 10:59:19;;;;;;;2.03;1.92;;;;;;;5.46;80.75;98158.34;4945662;29;20128;-83
2021/12/18 11:01:50;;;;;;;2.25;2.05;;;;;;;5.55;82.87;98157.19;4919675;29;20053;-82
2021/12/18 11:04:32;;;;;;;7.70;4.03;;;;;;;5.58;79.69;98163.25;4954132;29;20031;-81
2021/12/18 11:06:58;;;;;;;2.00;1.73;;;;;;;5.47;77.96;98160.09;4936222;29;20039;-82
2021/12/18 11:09:31;;;;;;;0.30;0.30;;;;;;;5.26;77.90;98155.47;4932129;29;20035;-82
2021/12/18 11:14:29;;;;;;;0.70;0.65;;;;;;;5.06;79.54;98142.81;4949218;29;20027;-82
2021/12/18 11:16:59;;;;;;;0.40;0.40;;;;;;;5.07;80.09;98156.94;4932544;29;20106;-82
2021/12/18 11:19:28;;;;;;;4.60;1.48;;;;;;;5.16;80.63;98161.97;4937440;29;20035;-82
2021/12/18 11:21:57;;;;;;;1.90;1.70;;;;;;;5.15;81.50;98160.22;4939977;29;20051;-81
2021/12/18 11:24:30;;;;;;;1.83;1.73;;;;;;;5.27;81.49;98162.50;4934430;29;20035;-82
2021/12/18 11:27:17;;;;;;;2.17;2.03;;;;;;;5.18;81.41;98162.78;4922476;29;20027;-83
2021/12/18 11:29:46;;;;;;;1.90;1.42;;;;;;;5.13;79.65;98170.88;4937554;29;20031;-82
2021/12/18 11:32:22;;;;;;;4.85;1.35;;;;;;;5.10;78.43;98156.84;4955363;29;20038;-78
2021/12/18 11:34:49;;;;;;;1.83;1.73;;;;;;;5.33;79.28;98162.31;4944947;29;20071;-84
2021/12/18 11:37:17;;;;;;;2.42;1.60;;;;;;;5.39;78.48;98164.75;4947493;29;20113;-81
2021/12/18 11:39:44;;;;;;;3.50;2.60;;;;;;;5.56;77.76;98169.53;4925616;29;20494;-81
2021/12/18 11:42:11;;;;;;;7.13;2.22;;;;;;;5.36;81.36;98172.81;4920962;29;20451;-80
2021/12/18 11:44:40;;;;;;;3.03;2.28;;;;;;;5.20;82.42;98182.19;4951390;29;20496;-81
2021/12/18 11:47:24;;;;;;;1.10;0.77;;;;;;;4.91;82.65;98177.75;4928334;29;20066;-81
2021/12/18 11:49:50;;;;;;;0.38;0.38;;;;;;;4.75;86.76;98174.66;4950087;29;20042;-81
2021/12/18 11:52:15;;;;;;;0.85;0.85;;;;;;;4.62;88.18;98181.22;4927069;29;20039;-79
2021/12/18 11:54:45;;;;;;;1.73;1.63;;;;;;;4.65;88.58;98175.84;4926174;29;20115;-81
2021/12/18 11:57:44;;;;;;;1.65;1.27;;;;;;;4.88;87.68;98177.84;4926143;29;20403;-82
2021/12/18 12:00:19;;;;;;;3.13;2.70;;;;;;;4.91;83.14;98170.66;4889725;29;20039;-81
2021/12/18 12:02:46;;;;;;;3.40;2.20;;;;;;;5.08;82.19;98169.25;4918971;29;20509;-81
2021/12/18 12:05:13;;;;;;;2.15;1.08;;;;;;;5.25;81.14;98182.91;4889131;29;20518;-81
2021/12/18 12:07:39;;;;;;;5.45;2.35;;;;;;;5.48;80.21;98180.38;4893649;29;20119;-82
2021/12/18 12:10:12;;;;;;;0.60;0.60;;;;;;;5.65;79.21;98182.50;4891888;29;20076;-81
2021/12/18 12:12:55;;;;;;;0.63;0.63;;;;;;;5.62;77.45;98167.56;4905654;29;20036;-80
2021/12/18 12:15:24;;;;;;;0.70;0.70;;;;;;;5.62;76.51;98178.19;4884905;29;20076;-80
2021/12/18 12:17:54;;;;;;;0.45;0.45;;;;;;;5.72;77.32;98168.97;4889551;29;20035;-81
2021/12/18 12:20:39;;;;;;;1.35;1.08;;;;;;;5.54;76.17;98171.38;4908269;29;20050;-80
2021/12/18 12:23:05;;;;;;;0.90;0.80;;;;;;;5.44;75.72;98157.53;4894736;29;20032;-89
2021/12/18 12:25:49;;;;;;;0.73;0.50;;;;;;;4.90;76.03;98107.09;4906031;29;20032;-90